Time;durP1;ratioP1;P1;durP2;ratioP2;P2;SDS_P1;SDS_P2;PMS_P1;PMS_P2;Temp;Humidity;BMP_temperature;BMP_pressure;BME280_temperature;BME280_humidity;BME280_pressure;Samples;Min_cycle;Max_cycle;Signal;HPM_P1;HPM_P2
2021/01/10 00:01:15;;;;;;;1.70;1.10;;;21.40;51.60;;;;;;5013097;28;20479;-60
2021/01/10 00:03:41;;;;;;;1.70;1.00;;;21.40;51.60;;;;;;5018481;28;20030;-60
2021/01/10 00:06:07;;;;;;;1.98;1.10;;;21.30;51.60;;;;;;5020773;28;20029;-61
2021/01/10 00:08:33;;;;;;;2.00;1.10;;;21.40;51.70;;;;;;5007122;28;20080;-63
2021/01/10 00:10:59;;;;;;;2.22;1.10;;;21.30;51.70;;;;;;5007804;28;20426;-61
2021/01/10 00:13:24;;;;;;;2.05;1.13;;;21.30;51.70;;;;;;5003980;28;20026;-61
2021/01/10 00:15:50;;;;;;;2.55;1.13;;;21.30;51.70;;;;;;5007403;28;20500;-61
2021/01/10 00:18:15;;;;;;;2.28;0.93;;;21.30;51.80;;;;;;5003494;28;20465;-59
2021/01/10 00:20:41;;;;;;;2.92;1.10;;;21.30;51.80;;;;;;5003773;28;20087;-60
2021/01/10 00:23:06;;;;;;;1.95;1.05;;;21.20;51.70;;;;;;5008472;28;20026;-59
2021/01/10 00:25:32;;;;;;;2.20;1.10;;;21.20;51.70;;;;;;5008611;28;20574;-60
2021/01/10 00:27:58;;;;;;;3.15;1.17;;;21.20;51.80;;;;;;5009018;28;20030;-60
2021/01/10 00:30:23;;;;;;;2.38;1.15;;;21.20;51.80;;;;;;5025763;28;20071;-61
2021/01/10 00:32:54;;;;;;;1.90;1.00;;;21.20;51.80;;;;;;5019008;28;20208;-61
2021/01/10 00:35:21;;;;;;;1.95;1.10;;;21.10;51.70;;;;;;5013723;28;20120;-62
2021/01/10 00:37:49;;;;;;;2.00;1.00;;;21.10;51.80;;;;;;5022823;28;20029;-61
2021/01/10 00:40:17;;;;;;;1.65;1.08;;;21.10;51.80;;;;;;5023459;28;20838;-62
2021/01/10 00:42:43;;;;;;;1.52;0.90;;;21.10;51.80;;;;;;5012211;28;20103;-60
2021/01/10 00:45:09;;;;;;;2.00;1.13;;;21.10;51.80;;;;;;5005619;28;20034;-64
2021/01/10 00:47:35;;;;;;;0.80;0.70;;;21.10;51.80;;;;;;5023803;28;20109;-63
2021/01/10 00:50:01;;;;;;;1.40;0.90;;;21.10;51.80;;;;;;5014842;28;20160;-61
2021/01/10 00:52:30;;;;;;;1.52;0.90;;;21.00;51.80;;;;;;5019508;28;20041;-60
2021/01/10 00:54:55;;;;;;;2.50;1.20;;;21.00;51.80;;;;;;5020936;28;20053;-61
2021/01/10 00:57:21;;;;;;;2.15;1.00;;;21.00;51.80;;;;;;5011059;28;20093;-62
2021/01/10 00:59:47;;;;;;;1.15;0.85;;;21.00;51.80;;;;;;5003135;28;20443;-61
2021/01/10 01:02:13;;;;;;;2.47;0.98;;;21.00;51.80;;;;;;5014492;28;20333;-61
2021/01/10 01:04:39;;;;;;;1.85;0.90;;;21.00;51.80;;;;;;5022734;28;20072;-61
2021/01/10 01:07:04;;;;;;;1.92;1.00;;;20.90;51.80;;;;;;5019584;28;20484;-62
2021/01/10 01:09:30;;;;;;;1.50;0.82;;;20.90;51.80;;;;;;5004611;28;20365;-60
2021/01/10 01:11:56;;;;;;;1.38;0.90;;;20.90;51.80;;;;;;5010057;28;20029;-59
2021/01/10 01:14:21;;;;;;;1.67;1.00;;;20.90;51.90;;;;;;5026391;28;20485;-60
2021/01/10 01:16:47;;;;;;;1.80;1.00;;;20.90;51.90;;;;;;5023427;28;20109;-59
2021/01/10 01:19:13;;;;;;;1.85;0.98;;;20.80;51.80;;;;;;5009024;28;20026;-60
2021/01/10 01:21:38;;;;;;;1.70;0.90;;;20.80;51.80;;;;;;5007783;28;20381;-63
2021/01/10 01:24:04;;;;;;;1.45;0.85;;;20.80;51.80;;;;;;5007930;28;20131;-60
2021/01/10 01:26:30;;;;;;;1.65;1.00;;;20.80;51.80;;;;;;5010998;28;20040;-60
2021/01/10 01:28:56;;;;;;;1.13;0.80;;;20.80;51.80;;;;;;5026385;28;20030;-60
2021/01/10 01:31:23;;;;;;;1.00;0.80;;;20.80;51.90;;;;;;5028204;28;20104;-61
2021/01/10 01:33:50;;;;;;;1.30;0.90;;;20.80;51.90;;;;;;5010461;28;20088;-60
2021/01/10 01:36:29;;;;;;;1.23;0.80;;;20.70;51.80;;;;;;5007157;28;20392;-61
2021/01/10 01:38:59;;;;;;;1.25;0.80;;;20.80;51.90;;;;;;5008130;28;20026;-62
2021/01/10 01:41:26;;;;;;;1.67;0.88;;;20.70;51.80;;;;;;5013247;28;20440;-62
2021/01/10 01:43:52;;;;;;;1.13;0.82;;;20.70;51.90;;;;;;5025724;28;20022;-60
2021/01/10 01:46:31;;;;;;;1.23;0.90;;;20.70;51.90;;;;;;5019155;28;20088;-62
2021/01/10 01:48:59;;;;;;;1.83;1.00;;;20.70;51.90;;;;;;5008670;28;20026;-61
2021/01/10 01:51:25;;;;;;;1.40;0.98;;;20.70;51.80;;;;;;5008115;28;20098;-61
2021/01/10 01:53:51;;;;;;;2.03;0.85;;;20.70;51.90;;;;;;5007545;28;20176;-60
2021/01/10 01:56:17;;;;;;;1.40;0.80;;;20.70;51.90;;;;;;5007398;28;20446;-62
2021/01/10 01:59:03;;;;;;;1.50;1.00;;;20.60;51.80;;;;;;5010736;28;20094;-60
2021/01/10 02:01:30;;;;;;;1.50;0.93;;;20.60;51.90;;;;;;5016737;28;20034;-62
2021/01/10 02:04:23;;;;;;;1.33;0.90;;;20.60;51.90;;;;;;5025636;28;20028;-60
2021/01/10 02:07:05;;;;;;;1.95;1.00;;;20.60;51.90;;;;;;5021648;28;20373;-60
2021/01/10 02:09:36;;;;;;;1.60;0.90;;;20.60;51.90;;;;;;5007401;28;20533;-60
2021/01/10 02:12:04;;;;;;;1.77;1.20;;;20.60;51.90;;;;;;5006991;28;20029;-62
2021/01/10 02:14:34;;;;;;;1.30;1.00;;;20.60;51.90;;;;;;5007661;28;20109;-61
2021/01/10 02:17:00;;;;;;;1.83;1.00;;;20.50;51.80;;;;;;5012640;28;20026;-61
2021/01/10 02:19:33;;;;;;;1.73;1.00;;;20.50;51.90;;;;;;5015566;28;20380;-59
2021/01/10 02:22:05;;;;;;;1.38;0.90;;;20.50;51.90;;;;;;5022200;28;20036;-61
2021/01/10 02:24:34;;;;;;;2.05;1.00;;;20.50;51.90;;;;;;5025684;28;20017;-60
2021/01/10 02:27:03;;;;;;;1.67;0.90;;;20.50;51.90;;;;;;5012531;28;20036;-61
2021/01/10 02:29:29;;;;;;;1.80;1.00;;;20.50;51.90;;;;;;5012552;28;20141;-60
2021/01/10 02:31:57;;;;;;;2.10;1.00;;;20.50;51.90;;;;;;5014810;28;20034;-60
2021/01/10 02:34:25;;;;;;;1.10;0.90;;;20.40;51.80;;;;;;5005916;28;20034;-59
2021/01/10 02:37:14;;;;;;;1.70;1.10;;;20.40;51.90;;;;;;5005268;28;20404;-60
2021/01/10 02:40:09;;;;;;;1.52;1.00;;;20.40;51.90;;;;;;5006001;28;20475;-62
2021/01/10 02:42:42;;;;;;;1.75;1.08;;;20.40;51.90;;;;;;5012906;28;20041;-61
2021/01/10 02:45:14;;;;;;;1.40;1.00;;;20.40;51.90;;;;;;5005152;28;20060;-60
2021/01/10 02:47:40;;;;;;;2.67;1.15;;;20.40;51.90;;;;;;5006780;28;20036;-62
2021/01/10 02:50:07;;;;;;;1.52;1.08;;;20.40;51.90;;;;;;5005475;28;20489;-60
2021/01/10 02:52:33;;;;;;;1.30;0.95;;;20.40;51.90;;;;;;5006178;28;20033;-61
2021/01/10 02:54:59;;;;;;;1.65;1.05;;;20.30;51.80;;;;;;5006547;28;20052;-60
2021/01/10 02:57:32;;;;;;;1.40;0.90;;;20.40;51.90;;;;;;5026574;28;20021;-62
2021/01/10 03:00:00;;;;;;;1.60;1.00;;;20.30;51.90;;;;;;5006691;28;20049;-61
2021/01/10 03:02:27;;;;;;;1.50;0.93;;;20.30;51.90;;;;;;5016723;28;20018;-59
2021/01/10 03:04:53;;;;;;;1.50;1.00;;;20.30;51.90;;;;;;5020793;28;20063;-60
2021/01/10 03:07:20;;;;;;;1.70;1.10;;;20.30;51.90;;;;;;5026881;28;20025;-60
2021/01/10 03:09:46;;;;;;;1.60;1.00;;;20.30;51.90;;;;;;5011161;28;20032;-61
2021/01/10 03:12:19;;;;;;;1.35;0.90;;;20.30;51.90;;;;;;5014620;28;20064;-61
2021/01/10 03:14:46;;;;;;;1.70;1.00;;;20.30;51.90;;;;;;5006558;28;20018;-60
2021/01/10 03:17:18;;;;;;;1.20;1.00;;;20.30;51.90;;;;;;5007405;28;20081;-61
2021/01/10 03:19:44;;;;;;;1.42;1.00;;;20.30;51.90;;;;;;5004780;28;20029;-60
2021/01/10 03:22:09;;;;;;;1.65;1.10;;;20.30;51.80;;;;;;5009610;28;20026;-61
2021/01/10 03:24:35;;;;;;;1.55;0.90;;;20.30;51.90;;;;;;5006728;28;20079;-61
2021/01/10 03:27:01;;;;;;;1.40;0.90;;;20.20;51.80;;;;;;5020053;28;20049;-59
2021/01/10 03:29:26;;;;;;;1.63;1.08;;;20.20;51.80;;;;;;5025188;28;20082;-62
2021/01/10 03:31:52;;;;;;;1.15;0.82;;;20.30;51.90;;;;;;5024098;28;20060;-62
2021/01/10 03:34:17;;;;;;;2.10;0.95;;;20.20;51.80;;;;;;5012188;28;20040;-62
2021/01/10 03:36:43;;;;;;;1.20;0.90;;;20.30;51.80;;;;;;5005764;28;20064;-64
2021/01/10 03:39:08;;;;;;;1.65;0.90;;;20.20;51.80;;;;;;5005178;28;20026;-62
2021/01/10 03:41:34;;;;;;;1.15;0.73;;;20.20;51.80;;;;;;5004294;28;20026;-65
2021/01/10 03:44:00;;;;;;;1.25;0.90;;;20.20;51.80;;;;;;5012187;28;20337;-61
2021/01/10 03:46:25;;;;;;;1.60;0.98;;;20.20;51.70;;;;;;5024430;28;20029;-61
2021/01/10 03:48:51;;;;;;;0.93;0.77;;;20.20;51.70;;;;;;5005910;28;20048;-62
2021/01/10 03:51:17;;;;;;;1.20;0.90;;;20.20;51.80;;;;;;5005786;28;20030;-61
2021/01/10 03:53:42;;;;;;;1.38;0.90;;;20.20;51.70;;;;;;5004115;28;20033;-61
2021/01/10 03:56:08;;;;;;;1.63;0.93;;;20.20;51.70;;;;;;5005802;28;20029;-61
2021/01/10 03:58:34;;;;;;;1.30;0.90;;;20.20;51.70;;;;;;5017034;28;20034;-64
2021/01/10 04:00:59;;;;;;;1.23;0.90;;;20.20;51.70;;;;;;5021636;28;20033;-60
2021/01/10 04:03:25;;;;;;;1.88;1.08;;;20.20;51.70;;;;;;5021678;28;20108;-64
2021/01/10 04:05:50;;;;;;;2.03;1.00;;;20.20;51.80;;;;;;5013722;28;20021;-63
2021/01/10 04:08:16;;;;;;;1.20;0.90;;;20.20;51.80;;;;;;5025405;28;20087;-61
2021/01/10 04:10:41;;;;;;;1.33;1.00;;;20.20;51.90;;;;;;5024766;28;20057;-61
2021/01/10 04:13:08;;;;;;;1.30;0.88;;;20.10;51.80;;;;;;5024751;28;20056;-61
2021/01/10 04:15:33;;;;;;;1.55;0.93;;;20.20;51.80;;;;;;5015100;28;20030;-60
2021/01/10 04:17:59;;;;;;;1.23;1.00;;;20.20;51.80;;;;;;5005624;28;20034;-64
2021/01/10 04:20:25;;;;;;;1.20;0.90;;;20.10;51.80;;;;;;5004712;28;20350;-63
2021/01/10 04:22:50;;;;;;;1.90;1.05;;;20.10;51.80;;;;;;5010457;28;20022;-61
2021/01/10 04:25:16;;;;;;;1.65;1.00;;;20.10;51.80;;;;;;5019748;28;20029;-62
2021/01/10 04:27:41;;;;;;;1.40;0.90;;;20.10;51.80;;;;;;5006425;28;20438;-62
2021/01/10 04:30:07;;;;;;;1.58;1.00;;;20.10;51.80;;;;;;5006992;28;20610;-61
2021/01/10 04:32:33;;;;;;;1.73;1.00;;;20.10;51.80;;;;;;5006043;28;20030;-62
2021/01/10 04:34:59;;;;;;;1.40;0.93;;;20.10;51.80;;;;;;5018947;28;20036;-61
2021/01/10 04:37:24;;;;;;;1.40;0.98;;;20.10;51.80;;;;;;5012051;28;20235;-62
2021/01/10 04:39:50;;;;;;;1.23;0.90;;;20.10;51.90;;;;;;5022473;28;20029;-63
2021/01/10 04:42:17;;;;;;;1.50;0.90;;;20.10;51.90;;;;;;5008131;28;20057;-62
2021/01/10 04:44:43;;;;;;;1.40;0.88;;;20.10;51.90;;;;;;5015970;28;20215;-61
2021/01/10 04:47:08;;;;;;;1.20;0.80;;;20.10;51.90;;;;;;5014589;28;20552;-62
2021/01/10 04:49:36;;;;;;;1.60;0.98;;;20.10;51.90;;;;;;5007864;28;20038;-63
2021/01/10 04:52:03;;;;;;;1.23;0.90;;;20.10;51.90;;;;;;5008937;28;20469;-60
2021/01/10 04:54:34;;;;;;;2.00;1.10;;;20.00;51.80;;;;;;5021258;28;20113;-61
2021/01/10 04:57:03;;;;;;;0.77;0.75;;;20.00;51.90;;;;;;5018192;28;20038;-61
2021/01/10 04:59:29;;;;;;;1.23;1.00;;;20.00;51.90;;;;;;5008411;28;20133;-61
2021/01/10 05:01:59;;;;;;;1.00;0.85;;;20.00;51.90;;;;;;5019744;28;20087;-60
2021/01/10 05:04:29;;;;;;;1.15;0.85;;;20.00;52.00;;;;;;5027051;28;20046;-62
2021/01/10 05:06:54;;;;;;;1.17;0.85;;;20.00;52.00;;;;;;5021330;28;20037;-62
2021/01/10 05:09:22;;;;;;;1.13;0.80;;;20.00;52.00;;;;;;5008037;28;20200;-61
2021/01/10 05:11:47;;;;;;;1.77;1.00;;;20.00;52.00;;;;;;5015174;28;20026;-62
2021/01/10 05:14:13;;;;;;;1.58;0.90;;;20.00;52.00;;;;;;5027244;28;20099;-61
2021/01/10 05:16:39;;;;;;;1.20;0.90;;;20.00;52.00;;;;;;5026198;28;20033;-64
2021/01/10 05:19:05;;;;;;;1.35;0.88;;;20.00;52.00;;;;;;5007546;28;20525;-61
2021/01/10 05:21:32;;;;;;;1.30;0.90;;;19.90;52.00;;;;;;5019325;28;20056;-61
2021/01/10 05:23:59;;;;;;;1.10;0.80;;;20.00;52.10;;;;;;5027464;28;20218;-62
2021/01/10 05:26:36;;;;;;;1.45;1.00;;;20.00;52.10;;;;;;5028087;28;20108;-61
2021/01/10 05:29:09;;;;;;;1.25;0.90;;;19.90;52.10;;;;;;5027202;28;20087;-61
2021/01/10 05:31:41;;;;;;;1.35;0.90;;;19.90;52.10;;;;;;5014251;28;20037;-61
2021/01/10 05:34:08;;;;;;;0.95;0.80;;;19.90;52.60;;;;;;5020632;28;20095;-60
2021/01/10 05:36:36;;;;;;;1.50;1.00;;;19.90;52.10;;;;;;5022967;28;20021;-60
2021/01/10 05:39:21;;;;;;;1.58;0.98;;;19.90;52.10;;;;;;5006310;28;20374;-61
2021/01/10 05:41:56;;;;;;;1.73;0.90;;;19.90;52.10;;;;;;5034828;28;20033;-60
2021/01/10 05:44:30;;;;;;;0.73;0.73;;;19.90;52.10;;;;;;5033930;28;20026;-61
2021/01/10 05:47:05;;;;;;;1.30;0.80;;;19.90;52.10;;;;;;5022252;28;20029;-61
2021/01/10 05:49:31;;;;;;;1.50;1.00;;;19.90;52.10;;;;;;5008373;28;20192;-61
2021/01/10 05:52:06;;;;;;;1.23;0.88;;;19.90;52.20;;;;;;5006928;28;20176;-61
2021/01/10 05:54:40;;;;;;;1.20;0.88;;;19.90;52.20;;;;;;5006379;28;20034;-61
2021/01/10 05:57:07;;;;;;;1.13;0.90;;;19.90;52.20;;;;;;5006894;28;20041;-60
2021/01/10 05:59:34;;;;;;;1.50;0.90;;;19.90;52.10;;;;;;5026184;28;20079;-60
2021/01/10 06:02:04;;;;;;;1.88;1.00;;;19.90;52.20;;;;;;5025602;28;20037;-62
2021/01/10 06:04:31;;;;;;;1.33;0.90;;;19.90;52.20;;;;;;5022379;28;20063;-61
2021/01/10 06:06:57;;;;;;;0.80;0.80;;;19.90;52.20;;;;;;5007362;28;20394;-60
2021/01/10 06:09:24;;;;;;;2.10;1.10;;;19.90;52.20;;;;;;5005887;28;20119;-61
2021/01/10 06:11:49;;;;;;;1.35;0.98;;;19.90;52.20;;;;;;5007131;28;20077;-60
2021/01/10 06:14:20;;;;;;;1.13;0.90;;;19.90;52.20;;;;;;5007051;28;20200;-60
2021/01/10 06:16:54;;;;;;;1.40;1.00;;;19.90;52.20;;;;;;5005456;28;20037;-62
2021/01/10 06:19:25;;;;;;;1.45;0.90;;;19.80;52.10;;;;;;5007097;28;20054;-61
2021/01/10 06:21:52;;;;;;;0.98;0.80;;;19.80;52.10;;;;;;5016839;28;20071;-60
2021/01/10 06:24:20;;;;;;;1.50;0.90;;;19.80;52.60;;;;;;5026056;28;20044;-62
2021/01/10 06:26:50;;;;;;;1.17;0.80;;;19.80;52.10;;;;;;5012075;28;20033;-61
2021/01/10 06:29:19;;;;;;;1.25;0.90;;;19.80;52.10;;;;;;5006833;28;20091;-60
2021/01/10 06:31:49;;;;;;;1.40;0.90;;;19.80;52.10;;;;;;5039914;28;20112;-61
2021/01/10 06:34:15;;;;;;;0.85;0.80;;;19.80;52.20;;;;;;5010041;28;20537;-61
2021/01/10 06:36:42;;;;;;;1.50;1.00;;;19.80;52.10;;;;;;5018838;28;20017;-61
2021/01/10 06:39:13;;;;;;;1.67;1.10;;;19.80;52.10;;;;;;5016166;28;20044;-60
2021/01/10 06:41:43;;;;;;;1.10;0.90;;;19.80;52.10;;;;;;5005650;28;20038;-61
2021/01/10 06:44:09;;;;;;;1.50;0.85;;;19.80;52.10;;;;;;5009489;28;20462;-61
2021/01/10 06:46:35;;;;;;;1.30;0.88;;;19.80;52.10;;;;;;5016452;28;20461;-61
2021/01/10 06:49:03;;;;;;;1.23;0.80;;;19.80;52.10;;;;;;5005785;28;20354;-60
2021/01/10 06:51:29;;;;;;;1.55;1.00;;;19.80;52.10;;;;;;5006180;28;20460;-60
2021/01/10 06:53:56;;;;;;;1.38;0.90;;;19.80;52.40;;;;;;5006817;28;20113;-61
2021/01/10 06:56:22;;;;;;;1.13;0.80;;;19.80;52.20;;;;;;5006912;28;20108;-61
2021/01/10 06:59:25;;;;;;;1.52;0.90;;;19.80;52.10;;;;;;5020149;28;20480;-62
2021/01/10 07:01:56;;;;;;;1.02;0.70;;;19.80;52.10;;;;;;5025822;28;20132;-61
2021/01/10 07:04:37;;;;;;;1.63;0.90;;;19.80;52.10;;;;;;5023833;28;20045;-62
2021/01/10 07:07:03;;;;;;;1.15;0.90;;;19.80;52.10;;;;;;5018477;28;20095;-63
2021/01/10 07:09:52;;;;;;;0.93;0.75;;;19.70;52.00;;;;;;5004972;28;20484;-61
2021/01/10 07:12:22;;;;;;;1.38;0.93;;;19.70;52.10;;;;;;5006912;28;20092;-60
2021/01/10 07:14:47;;;;;;;1.40;0.85;;;19.80;52.10;;;;;;5006089;28;20038;-62
2021/01/10 07:17:14;;;;;;;1.23;0.90;;;19.70;52.00;;;;;;5011425;28;20380;-61
2021/01/10 07:19:48;;;;;;;1.33;0.90;;;19.70;52.00;;;;;;5023830;28;20025;-62
2021/01/10 07:22:28;;;;;;;1.17;0.80;;;19.80;52.10;;;;;;5023749;28;20136;-62
2021/01/10 07:24:54;;;;;;;1.20;0.80;;;19.70;52.00;;;;;;5024648;28;20021;-62
2021/01/10 07:27:34;;;;;;;1.35;0.88;;;19.70;52.00;;;;;;5017629;28;20026;-60
2021/01/10 07:30:20;;;;;;;1.02;0.80;;;19.70;52.10;;;;;;5010431;28;20124;-60
2021/01/10 07:32:46;;;;;;;1.20;0.80;;;19.70;52.10;;;;;;5024607;28;20086;-61
2021/01/10 07:35:12;;;;;;;1.38;0.88;;;19.70;52.10;;;;;;5025120;28;20453;-60
2021/01/10 07:37:37;;;;;;;0.98;0.70;;;19.70;52.00;;;;;;5020107;28;20034;-61
2021/01/10 07:40:08;;;;;;;1.20;0.85;;;19.70;52.00;;;;;;5005856;28;20033;-60
2021/01/10 07:42:39;;;;;;;2.03;1.00;;;19.70;52.00;;;;;;5005357;28;20030;-60
2021/01/10 07:45:27;;;;;;;1.10;0.82;;;19.70;52.00;;;;;;5017531;28;20029;-63
2021/01/10 07:47:53;;;;;;;1.35;1.00;;;19.70;52.00;;;;;;5012259;28;20041;-60
2021/01/10 07:50:22;;;;;;;1.63;0.90;;;19.70;52.00;;;;;;5022312;28;20549;-61
2021/01/10 07:52:54;;;;;;;1.40;0.82;;;19.70;52.00;;;;;;5024353;28;20037;-61
2021/01/10 07:55:20;;;;;;;1.02;0.82;;;19.70;52.00;;;;;;5024951;28;20044;-60
2021/01/10 07:58:00;;;;;;;0.95;0.80;;;19.70;52.00;;;;;;5024207;28;20444;-61
2021/01/10 08:00:48;;;;;;;1.30;0.90;;;19.70;52.00;;;;;;5003668;28;20038;-61
2021/01/10 08:03:18;;;;;;;0.88;0.70;;;19.70;52.00;;;;;;5002890;28;20432;-63
2021/01/10 08:05:58;;;;;;;1.42;1.00;;;19.70;52.00;;;;;;5017285;28;20040;-64
2021/01/10 08:08:44;;;;;;;;;;;19.70;52.00;;;;;;5006673;28;20046;-63
2021/01/10 08:11:11;;;;;;;1.17;0.80;;;19.70;52.00;;;;;;5006522;28;19906;-62
2021/01/10 08:13:41;;;;;;;1.30;0.90;;;19.70;52.00;;;;;;5009233;28;20151;-64
2021/01/10 08:16:33;;;;;;;1.38;0.90;;;19.70;52.00;;;;;;5007771;28;20180;-60
2021/01/10 08:19:05;;;;;;;1.08;0.80;;;19.60;51.90;;;;;;5003770;28;20054;-62
2021/01/10 08:21:31;;;;;;;1.48;0.90;;;19.70;52.00;;;;;;5010739;28;20025;-62
2021/01/10 08:23:59;;;;;;;1.70;0.93;;;19.70;52.50;;;;;;5010829;28;20038;-60
2021/01/10 08:26:26;;;;;;;1.27;1.00;;;19.60;51.90;;;;;;5010979;28;20034;-60
2021/01/10 08:28:53;;;;;;;1.02;0.80;;;19.70;52.00;;;;;;5020239;28;20704;-63
2021/01/10 08:31:29;;;;;;;1.30;0.80;;;19.60;51.90;;;;;;5024214;28;20076;-59
2021/01/10 08:33:59;;;;;;;1.25;0.82;;;19.60;51.90;;;;;;5007607;28;20516;-60
2021/01/10 08:36:25;;;;;;;1.70;0.90;;;19.70;52.00;;;;;;5021653;28;20034;-60
2021/01/10 08:39:05;;;;;;;1.48;0.95;;;19.60;51.90;;;;;;5013512;28;20443;-62
2021/01/10 08:41:40;;;;;;;1.00;0.80;;;19.60;51.90;;;;;;5011578;28;20488;-64
2021/01/10 08:44:09;;;;;;;0.98;0.77;;;19.60;51.90;;;;;;5028180;28;20104;-61
2021/01/10 08:46:38;;;;;;;1.30;0.82;;;19.60;51.90;;;;;;5029712;28;20441;-60
2021/01/10 08:49:04;;;;;;;1.08;0.90;;;19.60;51.90;;;;;;5012546;28;20048;-60
2021/01/10 08:51:34;;;;;;;1.10;0.80;;;19.60;51.90;;;;;;5017743;28;20096;-59
2021/01/10 08:54:09;;;;;;;1.65;0.93;;;19.60;51.90;;;;;;5024688;28;20108;-61
2021/01/10 08:56:35;;;;;;;0.90;0.82;;;19.60;52.00;;;;;;5006272;28;20047;-60
2021/01/10 08:59:02;;;;;;;1.10;0.80;;;19.60;52.10;;;;;;5012494;28;20088;-60
2021/01/10 09:01:28;;;;;;;1.50;0.90;;;19.60;52.20;;;;;;5013010;28;20033;-60
2021/01/10 09:04:05;;;;;;;1.67;1.08;;;19.60;52.30;;;;;;5023240;28;20399;-60
2021/01/10 09:06:46;;;;;;;1.27;0.80;;;19.60;52.30;;;;;;5022236;28;20357;-61
2021/01/10 09:09:36;;;;;;;1.40;0.93;;;19.60;52.40;;;;;;5020065;28;20441;-61
2021/01/10 09:12:42;;;;;;;1.77;1.05;;;19.60;52.30;;;;;;5010198;28;20026;-61
2021/01/10 09:15:19;;;;;;;1.35;1.00;;;19.60;52.30;;;;;;5025316;28;20067;-61
2021/01/10 09:17:56;;;;;;;2.03;1.10;;;19.60;52.30;;;;;;5023075;28;20040;-63
2021/01/10 09:20:27;;;;;;;1.50;1.00;;;19.70;52.40;;;;;;5024098;28;20048;-61
2021/01/10 09:22:56;;;;;;;2.00;1.08;;;19.60;52.40;;;;;;5021658;28;20025;-60
2021/01/10 09:25:21;;;;;;;1.25;1.00;;;19.70;52.40;;;;;;5024882;28;20022;-62
2021/01/10 09:28:07;;;;;;;1.70;1.13;;;19.70;52.40;;;;;;5025079;28;20415;-60
2021/01/10 09:30:34;;;;;;;2.00;1.10;;;19.70;52.40;;;;;;5016445;28;20033;-61
2021/01/10 09:33:02;;;;;;;1.98;1.10;;;19.70;52.30;;;;;;5013430;28;20601;-61
2021/01/10 09:35:36;;;;;;;1.35;0.90;;;19.70;52.40;;;;;;5018251;28;20048;-61
2021/01/10 09:38:07;;;;;;;2.00;1.10;;;19.70;52.30;;;;;;5004288;28;20044;-61
2021/01/10 09:40:33;;;;;;;1.80;1.02;;;19.70;52.40;;;;;;5007121;28;20064;-63
2021/01/10 09:42:59;;;;;;;2.65;1.00;;;19.70;52.30;;;;;;5021565;28;20341;-62
2021/01/10 09:45:34;;;;;;;1.80;1.05;;;19.70;52.40;;;;;;5022755;28;20099;-60
2021/01/10 09:48:04;;;;;;;1.88;1.00;;;19.70;52.40;;;;;;5019712;28;20044;-62
2021/01/10 09:50:31;;;;;;;1.77;1.15;;;19.70;52.40;;;;;;5015147;28;20026;-61
2021/01/10 09:52:56;;;;;;;1.58;0.93;;;19.70;52.40;;;;;;5014363;28;20583;-61
2021/01/10 09:55:25;;;;;;;1.67;1.10;;;19.70;52.40;;;;;;5005644;28;20041;-60
2021/01/10 09:57:51;;;;;;;2.70;1.10;;;19.70;52.40;;;;;;5013386;28;20029;-63
2021/01/10 10:00:17;;;;;;;3.08;1.30;;;19.70;52.50;;;;;;5012902;28;20049;-61
2021/01/10 10:02:44;;;;;;;2.20;1.15;;;19.70;52.50;;;;;;5008452;28;20029;-63
2021/01/10 10:05:17;;;;;;;2.15;1.30;;;19.70;52.60;;;;;;5017553;28;20461;-62
2021/01/10 10:07:45;;;;;;;2.15;1.30;;;19.70;52.60;;;;;;5017370;28;20094;-60
2021/01/10 10:10:17;;;;;;;2.60;1.20;;;19.70;52.60;;;;;;5010293;28;20041;-64
2021/01/10 10:12:54;;;;;;;2.72;1.33;;;19.70;52.60;;;;;;5023184;28;20037;-60
2021/01/10 10:15:20;;;;;;;1.88;1.10;;;19.70;52.60;;;;;;5008557;28;20419;-63
2021/01/10 10:17:46;;;;;;;3.13;1.20;;;19.70;52.60;;;;;;5000578;28;20345;-62
2021/01/10 10:20:12;;;;;;;2.40;1.27;;;19.70;52.60;;;;;;5007612;28;20109;-62
2021/01/10 10:22:39;;;;;;;2.25;1.40;;;19.70;52.60;;;;;;5005644;28;20107;-63
2021/01/10 10:25:07;;;;;;;2.03;1.13;;;19.70;52.60;;;;;;5008148;28;20021;-61
2021/01/10 10:27:34;;;;;;;3.30;1.40;;;19.70;52.60;;;;;;5005994;28;20944;-65
2021/01/10 10:30:01;;;;;;;1.55;1.00;;;19.70;52.60;;;;;;5006301;28;20030;-62
2021/01/10 10:32:27;;;;;;;1.67;1.00;;;19.70;52.60;;;;;;5005782;28;20041;-62
2021/01/10 10:34:54;;;;;;;2.50;1.15;;;19.80;52.60;;;;;;5018282;28;20048;-60
2021/01/10 10:37:20;;;;;;;2.30;1.10;;;19.90;52.60;;;;;;5011675;28;20037;-63
2021/01/10 10:39:46;;;;;;;1.90;1.00;;;19.90;52.40;;;;;;5036670;28;20033;-60
2021/01/10 10:42:17;;;;;;;3.00;1.10;;;20.00;52.50;;;;;;5002714;28;20022;-62
2021/01/10 10:44:43;;;;;;;1.45;1.00;;;20.00;52.40;;;;;;5011233;28;20487;-62
2021/01/10 10:47:11;;;;;;;1.67;1.00;;;20.10;52.40;;;;;;5013051;28;20402;-61
2021/01/10 10:49:37;;;;;;;2.13;1.20;;;20.10;52.40;;;;;;5005383;28;20026;-59
2021/01/10 10:52:06;;;;;;;1.63;0.98;;;20.20;52.40;;;;;;5021634;28;20036;-62
2021/01/10 10:54:32;;;;;;;1.92;0.88;;;20.20;52.30;;;;;;5024201;28;20113;-60
2021/01/10 10:56:58;;;;;;;4.90;1.30;;;20.20;52.30;;;;;;5018859;28;20113;-63
2021/01/10 10:59:23;;;;;;;2.05;1.00;;;20.10;52.30;;;;;;5006932;28;20409;-61
2021/01/10 11:01:49;;;;;;;2.13;1.20;;;20.20;52.30;;;;;;5006242;28;20033;-62
2021/01/10 11:04:15;;;;;;;1.77;1.00;;;20.10;52.20;;;;;;5000317;28;20051;-61
2021/01/10 11:06:41;;;;;;;2.53;1.27;;;20.20;52.30;;;;;;5006215;28;20026;-60
2021/01/10 11:09:10;;;;;;;2.42;1.25;;;20.10;52.40;;;;;;5003233;28;20099;-63
2021/01/10 11:11:47;;;;;;;2.85;1.40;;;20.10;52.60;;;;;;5020400;28;20025;-60
2021/01/10 11:14:15;;;;;;;2.17;1.23;;;20.10;52.60;;;;;;5013850;28;20484;-61
2021/01/10 11:16:43;;;;;;;4.88;1.30;;;20.20;52.90;;;;;;5021512;28;20699;-62
2021/01/10 11:19:09;;;;;;;3.22;1.20;;;20.20;53.00;;;;;;5016709;28;20129;-62
2021/01/10 11:21:37;;;;;;;1.85;1.10;;;20.10;53.00;;;;;;5004387;28;20095;-63
2021/01/10 11:24:04;;;;;;;2.88;1.25;;;20.20;53.20;;;;;;5015408;28;20464;-63
2021/01/10 11:26:30;;;;;;;1.88;1.20;;;20.20;53.30;;;;;;5003310;28;20092;-62
2021/01/10 11:28:56;;;;;;;2.78;1.05;;;20.10;53.40;;;;;;5016786;28;20033;-61
2021/01/10 11:31:26;;;;;;;2.05;1.00;;;20.20;53.50;;;;;;5013159;28;20067;-62
2021/01/10 11:33:53;;;;;;;3.38;1.20;;;20.20;53.70;;;;;;5001690;28;20034;-61
2021/01/10 11:36:19;;;;;;;2.50;1.27;;;20.20;53.70;;;;;;5001777;28;20107;-62
2021/01/10 11:38:50;;;;;;;5.18;1.30;;;20.20;53.80;;;;;;5003670;28;20114;-64
2021/01/10 11:41:17;;;;;;;3.00;1.48;;;20.20;54.20;;;;;;5005679;28;20124;-64
2021/01/10 11:43:43;;;;;;;4.15;1.65;;;20.30;54.10;;;;;;5017567;28;20029;-62
2021/01/10 11:46:09;;;;;;;4.82;1.50;;;20.50;53.60;;;;;;5009966;28;20084;-64
2021/01/10 11:48:35;;;;;;;3.63;1.60;;;20.60;53.30;;;;;;5003685;28;20842;-64
2021/01/10 11:51:02;;;;;;;5.35;1.60;;;20.70;53.00;;;;;;5008032;28;20025;-63
2021/01/10 11:53:28;;;;;;;4.15;1.42;;;20.80;52.60;;;;;;5013928;28;20511;-66
2021/01/10 11:55:54;;;;;;;2.95;1.45;;;20.90;52.80;;;;;;5003745;28;20080;-62
2021/01/10 11:58:20;;;;;;;3.65;1.67;;;21.00;52.60;;;;;;5008505;28;20036;-66
2021/01/10 12:00:53;;;;;;;4.78;1.70;;;21.10;52.10;;;;;;5002265;28;20354;-65
2021/01/10 12:03:19;;;;;;;3.67;1.55;;;21.20;51.90;;;;;;5003773;28;20476;-66
2021/01/10 12:05:45;;;;;;;3.03;1.45;;;21.20;51.80;;;;;;5012684;28;20206;-65
2021/01/10 12:08:11;;;;;;;3.47;1.50;;;21.30;51.70;;;;;;5001851;28;20026;-66
2021/01/10 12:10:38;;;;;;;2.55;1.30;;;21.40;51.80;;;;;;5010848;28;20068;-65
2021/01/10 12:13:04;;;;;;;2.80;1.50;;;21.50;51.40;;;;;;5014175;28;20026;-68
2021/01/10 12:15:32;;;;;;;4.85;1.92;;;21.70;50.80;;;;;;5009410;28;20044;-62
2021/01/10 12:18:07;;;;;;;3.13;1.60;;;21.80;50.50;;;;;;5005412;28;20489;-66
2021/01/10 12:20:34;;;;;;;2.55;1.70;;;21.90;50.50;;;;;;5011548;28;20548;-65
2021/01/10 12:23:00;;;;;;;3.53;1.70;;;21.90;50.50;;;;;;5008331;28;20384;-65
2021/01/10 12:25:26;;;;;;;3.13;1.58;;;22.00;50.40;;;;;;5013761;28;20731;-66
2021/01/10 12:27:52;;;;;;;4.10;1.50;;;22.10;50.30;;;;;;5004523;28;20029;-63
2021/01/10 12:30:19;;;;;;;2.55;1.25;;;22.10;50.20;;;;;;5002982;28;20034;-67
2021/01/10 12:32:44;;;;;;;3.30;1.20;;;22.10;50.20;;;;;;5006893;28;20026;-66
2021/01/10 12:35:15;;;;;;;3.67;1.17;;;22.00;50.20;;;;;;5011484;28;20044;-65
2021/01/10 12:37:41;;;;;;;2.35;1.20;;;21.90;50.20;;;;;;5011878;28;20026;-66
2021/01/10 12:40:07;;;;;;;2.53;1.42;;;21.90;50.30;;;;;;5009697;28;20046;-65
2021/01/10 12:42:34;;;;;;;3.33;1.30;;;21.90;50.30;;;;;;5003679;28;20762;-64
2021/01/10 12:45:00;;;;;;;3.10;1.40;;;21.90;50.40;;;;;;5008588;28;20093;-64
2021/01/10 12:47:26;;;;;;;2.53;1.20;;;21.90;50.40;;;;;;5002066;28;20120;-66
2021/01/10 12:49:51;;;;;;;2.22;1.30;;;21.80;50.40;;;;;;5002993;28;20030;-65
2021/01/10 12:52:17;;;;;;;3.42;1.23;;;21.80;50.80;;;;;;5014009;28;20404;-67
2021/01/10 12:54:42;;;;;;;2.38;1.20;;;21.80;50.40;;;;;;5001878;28;20515;-64
2021/01/10 12:57:08;;;;;;;2.03;1.20;;;21.80;50.30;;;;;;5002221;28;20082;-63